< Cyclone 199706 1997 Season Cyclone 199708 >
Cyclone 199707 (RACHEL)
General InformationTrack Information on Google MapsDetailed Wind InformationList of All Images || ResourceGoogle EarthGE AnimationAtom FeedGeoJSON
Detalied Best Track (Time Zone = UTC)
Year Month Day Hour Lat. Long. Pressure (hPa) Wind (kt) Class Image Chart
1997 1 2 21 -11.6 129.9 992 0 0 Image --
1997 1 3 00 -12.0 129.5 990 0 0 Image --
1997 1 3 06 -12.8 128.3 988 0 0 Image --
1997 1 3 12 -13.3 127.3 986 0 0 Image --
1997 1 3 15 -13.6 127.4 984 0 0 Image --
1997 1 3 18 -13.8 127.1 982 0 0 Image --
1997 1 3 22 -13.8 126.5 985 47 3 Image --
1997 1 4 00 -14.1 126.3 988 46 0 Image --
1997 1 4 01 -14.2 126.2 988 45 3 Image --
1997 1 4 06 -14.6 125.5 992 41.6667 0 Image --
1997 1 4 09 -14.9 125.0 994 38.3333 0 Image --
1997 1 4 13 -15.6 124.6 995 35 3 Image --
1997 1 5 01 -16.3 122.8 992 39 3 Image --
1997 1 5 04 -16.7 122.4 992 39 3 Image --
1997 1 5 07 -16.9 122.1 990 41 3 Image --
1997 1 5 10 -17.0 121.9 990 41 3 Image --
1997 1 5 13 -17.1 121.7 988 45 3 Image --
1997 1 5 16 -17.2 121.5 986 47 3 Image --
1997 1 5 19 -17.4 121.3 985 47 3 Image --
1997 1 5 22 -17.6 121.1 980 54 4 Image --
1997 1 6 01 -17.7 120.7 975 60 4 Image --
1997 1 6 04 -17.9 120.4 970 66 5 Image --
1997 1 6 07 -18.1 120.2 965 70 5 Image --
1997 1 6 10 -18.2 120.0 965 70 5 Image --
1997 1 6 13 -18.4 119.8 965 70 5 Image --
1997 1 6 16 -18.7 119.5 965 70 5 Image --
1997 1 6 19 -19.0 119.3 965 70 5 Image --
1997 1 6 22 -19.3 119.0 965 70 5 Image --
1997 1 7 01 -19.5 118.6 965 70 5 Image --
1997 1 7 04 -19.7 118.5 965 70 5 Image --
1997 1 7 07 -20.0 118.6 970 66 5 Image --
1997 1 7 08 -20.2 118.6 970 66 5 Image --
1997 1 7 10 -20.5 118.6 975 60 4 Image --
1997 1 7 13 -20.9 118.6 978 56 4 Image --
1997 1 7 16 -21.3 118.6 980 54 4 Image --
1997 1 7 19 -21.7 118.6 985 47 3 Image --
1997 1 7 22 -22.0 118.7 988 45 3 Image --
1997 1 8 01 -22.4 118.8 990 41 3 Image --
1997 1 8 04 -22.8 118.9 990 41 3 Image --
1997 1 8 07 -23.2 119.0 993 37 3 Image --
1997 1 8 10 -23.7 119.1 995 35 3 Image --
1997 1 8 13 -24.2 119.2 995 35 3 Image --
1997 1 8 16 -24.6 119.4 995 35 3 Image --
1997 1 8 19 -25.0 119.6 995 35 3 Image --
1997 1 8 22 -25.3 119.9 997 31 2 Image --
1997 1 9 01 -25.6 120.3 997 31 2 Image --
1997 1 9 07 -26.0 121.0 998 29 2 Image --
1997 1 9 13 -26.5 121.7 1002 23 2 Image --
1997 1 10 01 -27.4 123.0 1003 21 2 Image --
< Cyclone 199706 1997 Season Cyclone 199708 >

Help